Baltimore, Maryland
Traffic Map
Current Weather Conditions
Baltimore, Maryland
Broken Clouds
Broken Clouds
77°
Feels Like: 79°
Wind Chill: 77° Ceiling: 3600
Heat Index: 79° Visibility: 10mi
Dew Point: 64° Wind: 12mph
Humidity: 64% Direction: 110° (ESE)
Pressure: 30.05in Gusts: 0mph
Raw Report DataKBWI 210154Z 11010KT 10SM BKN036 BKN055 BKN100 25/18 A3005 RMK AO2 SLP174 T02500178
Traffic Incident Summary
Active as of:
Severity:
Category:
InformationThere was an issue retrieving the traffic information for this location. Please try a different location or try again shortly.
Advertisements